EDW67 VRMM-LSZH
Flight info
| Callsign | EDW67 |
|---|---|
| Flight time | N/A |
| Altitude | 36000 |
| Route | MUNUT R329 ANODA UL425 DONSA/N0492F380 UL425 ASPUX N315 SITOL DCT PUSON L883 KITUB Y511 NALBA/N0486F400 Y511 PMA Z712 WEJ L677 CVO L617 NOZ L551 ANTAR UN133 KPC UN137 TIPAS UL53 AKORO UL617 MAKED DCT LONTA UL608 DOLEV DCT YUYUH DCT EVAXI DCT ERKIR DCT KPT L856 NEGRA |
| Aircraft | A359/H-SDE2E3GHIJ3J4J5LM1ORWXY/LB1D1 |
Departure
| Time | 2026-05-05 09:05 |
|---|---|
| Airport | Velana International Airport (VRMM) |
Arrival
| Time | N/A |
|---|---|
| Airport | Zürich Airport (LSZH) |
| Time | Latitude | Longitude | Altitude | Speed | Heading |
|---|---|---|---|---|---|
| 2026-05-05 08:44 | 4.18555 | 73.52813 | 22 ft | 0 kts | 268° |
| 2026-05-05 08:49 | 4.18554 | 73.52829 | 22 ft | 2 kts | 298° |
| 2026-05-05 08:49 | 4.18546 | 73.52843 | 21 ft | 3 kts | 302° |
| 2026-05-05 08:49 | 4.18534 | 73.52857 | 21 ft | 2 kts | 328° |
| 2026-05-05 08:50 | 4.18524 | 73.52863 | 23 ft | 0 kts | 348° |
| 2026-05-05 08:52 | 4.18530 | 73.52862 | 22 ft | 5 kts | 349° |
| 2026-05-05 08:52 | 4.18600 | 73.52887 | 23 ft | 18 kts | 51° |
| 2026-05-05 08:52 | 4.18746 | 73.52923 | 22 ft | 34 kts | 359° |
| 2026-05-05 08:52 | 4.18970 | 73.52925 | 19 ft | 29 kts | 20° |
| 2026-05-05 08:53 | 4.19013 | 73.53071 | 22 ft | 19 kts | 76° |
| 2026-05-05 08:53 | 4.19068 | 73.53103 | 20 ft | 8 kts | 359° |
| 2026-05-05 08:53 | 4.19143 | 73.53103 | 20 ft | 13 kts | 1° |
| 2026-05-05 08:53 | 4.19253 | 73.53107 | 19 ft | 18 kts | 2° |
| 2026-05-05 08:54 | 4.19398 | 73.53109 | 19 ft | 27 kts | 360° |
| 2026-05-05 08:54 | 4.19616 | 73.53104 | 22 ft | 41 kts | 359° |
| 2026-05-05 08:54 | 4.19942 | 73.53103 | 21 ft | 53 kts | 359° |
| 2026-05-05 08:54 | 4.20345 | 73.53100 | 22 ft | 59 kts | 360° |
| 2026-05-05 08:55 | 4.20740 | 73.53102 | 18 ft | 48 kts | 359° |
| 2026-05-05 08:55 | 4.20928 | 73.53030 | 22 ft | 19 kts | 272° |
| 2026-05-05 08:55 | 4.20980 | 73.52943 | 20 ft | 14 kts | 349° |
| 2026-05-05 08:55 | 4.21068 | 73.52960 | 21 ft | 12 kts | 15° |
| 2026-05-05 08:56 | 4.21167 | 73.52986 | 18 ft | 17 kts | 14° |
| 2026-05-05 08:56 | 4.21233 | 73.53016 | 23 ft | 0 kts | 48° |
| 2026-05-05 09:04 | 4.21236 | 73.53019 | 21 ft | 5 kts | 50° |
| 2026-05-05 09:04 | 4.21233 | 73.53097 | 23 ft | 15 kts | 135° |
| 2026-05-05 09:04 | 4.21131 | 73.53102 | 18 ft | 28 kts | 180° |
| 2026-05-05 09:05 | 4.20725 | 73.53100 | 20 ft | 87 kts | 180° |
| 2026-05-05 09:05 | 4.19938 | 73.53102 | 19 ft | 137 kts | 180° |
| 2026-05-05 09:05 | 4.18858 | 73.53104 | 166 ft | 167 kts | 181° |
| 2026-05-05 09:05 | 4.17718 | 73.53109 | 863 ft | 160 kts | 185° |
| 2026-05-05 09:06 | 4.16554 | 73.53105 | 1193 ft | 176 kts | 185° |
| 2026-05-05 09:06 | 4.15270 | 73.53097 | 1439 ft | 190 kts | 184° |
| 2026-05-05 09:06 | 4.13911 | 73.53096 | 1749 ft | 206 kts | 184° |
| 2026-05-05 09:06 | 4.12399 | 73.53093 | 2072 ft | 226 kts | 184° |
| 2026-05-05 09:07 | 4.10760 | 73.53092 | 2412 ft | 245 kts | 184° |
| 2026-05-05 09:07 | 4.08983 | 73.53091 | 2871 ft | 263 kts | 184° |
| 2026-05-05 09:07 | 4.07143 | 73.53095 | 3470 ft | 270 kts | 183° |
| 2026-05-05 09:07 | 4.05260 | 73.53100 | 4120 ft | 270 kts | 183° |
| 2026-05-05 09:08 | 4.03365 | 73.53104 | 4692 ft | 273 kts | 183° |
| 2026-05-05 09:08 | 4.01474 | 73.53130 | 5246 ft | 276 kts | 179° |
| 2026-05-05 09:08 | 3.99596 | 73.53595 | 5861 ft | 283 kts | 155° |
| 2026-05-05 09:08 | 3.98077 | 73.54860 | 6684 ft | 289 kts | 128° |
| 2026-05-05 09:09 | 3.97266 | 73.56689 | 7252 ft | 297 kts | 99° |
| 2026-05-05 09:09 | 3.97161 | 73.58762 | 8022 ft | 299 kts | 89° |
| 2026-05-05 09:09 | 3.97243 | 73.60877 | 8932 ft | 304 kts | 82° |
| 2026-05-05 09:09 | 3.97863 | 73.62862 | 9973 ft | 304 kts | 60° |
| 2026-05-05 09:10 | 3.99274 | 73.64446 | 10369 ft | 311 kts | 31° |
| 2026-05-05 09:10 | 4.01321 | 73.65186 | 10544 ft | 320 kts | 2° |
| 2026-05-05 09:10 | 4.03579 | 73.65009 | 10770 ft | 332 kts | 349° |
| 2026-05-05 09:10 | 4.05939 | 73.64845 | 10967 ft | 347 kts | 356° |
| 2026-05-05 09:11 | 4.08411 | 73.64805 | 11178 ft | 360 kts | 357° |
| 2026-05-05 09:11 | 4.10917 | 73.64793 | 11531 ft | 367 kts | 358° |
| 2026-05-05 09:11 | 4.13489 | 73.64787 | 11977 ft | 370 kts | 358° |
| 2026-05-05 09:11 | 4.16051 | 73.64783 | 12435 ft | 373 kts | 358° |
| 2026-05-05 09:12 | 4.18665 | 73.64780 | 12902 ft | 376 kts | 358° |
| 2026-05-05 09:12 | 4.21299 | 73.64777 | 13391 ft | 378 kts | 358° |
| 2026-05-05 09:12 | 4.23910 | 73.64774 | 13844 ft | 380 kts | 358° |
| 2026-05-05 09:12 | 4.26576 | 73.64770 | 14220 ft | 384 kts | 359° |
| 2026-05-05 09:13 | 4.29272 | 73.64767 | 14587 ft | 387 kts | 358° |
| 2026-05-05 09:13 | 4.31953 | 73.64764 | 14949 ft | 391 kts | 358° |
| 2026-05-05 09:13 | 4.34694 | 73.64761 | 15370 ft | 394 kts | 358° |
| 2026-05-05 09:13 | 4.37447 | 73.64758 | 15828 ft | 397 kts | 358° |
| 2026-05-05 09:14 | 4.40235 | 73.64755 | 16213 ft | 401 kts | 358° |
| 2026-05-05 09:14 | 4.43007 | 73.64751 | 16631 ft | 403 kts | 359° |
| 2026-05-05 09:14 | 4.45829 | 73.64751 | 17020 ft | 406 kts | 358° |
| 2026-05-05 09:14 | 4.48675 | 73.64752 | 17363 ft | 409 kts | 359° |
| 2026-05-05 09:15 | 4.51496 | 73.64751 | 17750 ft | 411 kts | 359° |
| 2026-05-05 09:15 | 4.54388 | 73.64751 | 18123 ft | 414 kts | 358° |
| 2026-05-05 09:15 | 4.57287 | 73.64749 | 18417 ft | 418 kts | 358° |
| 2026-05-05 09:15 | 4.60163 | 73.64556 | 18758 ft | 418 kts | 349° |
| 2026-05-05 09:16 | 4.63020 | 73.63995 | 19111 ft | 419 kts | 346° |
| 2026-05-05 09:16 | 4.65885 | 73.63345 | 19421 ft | 421 kts | 345° |
| 2026-05-05 09:16 | 4.68757 | 73.62688 | 19755 ft | 423 kts | 346° |
| 2026-05-05 09:16 | 4.71611 | 73.62037 | 20097 ft | 425 kts | 345° |
| 2026-05-05 09:17 | 4.74509 | 73.61379 | 20405 ft | 428 kts | 345° |
| 2026-05-05 09:17 | 4.77401 | 73.60724 | 20691 ft | 431 kts | 346° |
| 2026-05-05 09:17 | 4.80334 | 73.60060 | 21032 ft | 432 kts | 346° |
| 2026-05-05 09:17 | 4.82289 | 73.59618 | 21279 ft | 433 kts | 346° |
| 2026-05-05 09:18 | 4.85248 | 73.58949 | 21564 ft | 436 kts | 345° |
| 2026-05-05 09:18 | 4.89205 | 73.58054 | 21973 ft | 439 kts | 346° |
| 2026-05-05 09:18 | 4.91201 | 73.57603 | 22200 ft | 440 kts | 346° |
| 2026-05-05 09:18 | 4.95187 | 73.56702 | 22624 ft | 443 kts | 346° |
| 2026-05-05 09:19 | 4.97238 | 73.56239 | 22780 ft | 446 kts | 346° |
| 2026-05-05 09:19 | 5.00243 | 73.55559 | 23107 ft | 448 kts | 346° |
| 2026-05-05 09:19 | 5.03293 | 73.54870 | 23455 ft | 449 kts | 346° |
| 2026-05-05 09:19 | 5.06332 | 73.54183 | 23674 ft | 452 kts | 346° |
| 2026-05-05 09:20 | 5.09414 | 73.53486 | 23897 ft | 454 kts | 346° |
| 2026-05-05 09:20 | 5.12516 | 73.52784 | 24204 ft | 455 kts | 346° |
| 2026-05-05 09:20 | 5.15619 | 73.52083 | 24446 ft | 458 kts | 346° |
| 2026-05-05 09:20 | 5.18700 | 73.51386 | 24653 ft | 461 kts | 346° |
| 2026-05-05 09:21 | 5.21818 | 73.50574 | 24969 ft | 461 kts | 341° |
| 2026-05-05 09:21 | 5.24767 | 73.49331 | 25316 ft | 460 kts | 332° |
| 2026-05-05 09:21 | 5.27576 | 73.47823 | 25589 ft | 463 kts | 330° |
| 2026-05-05 09:21 | 5.30417 | 73.46242 | 25843 ft | 467 kts | 329° |
| 2026-05-05 09:22 | 5.33261 | 73.44656 | 26128 ft | 469 kts | 330° |
| 2026-05-05 09:22 | 5.36105 | 73.43074 | 26498 ft | 470 kts | 330° |
| 2026-05-05 09:22 | 5.38990 | 73.41472 | 26864 ft | 471 kts | 330° |
| 2026-05-05 09:22 | 5.41838 | 73.39892 | 27132 ft | 474 kts | 330° |
| 2026-05-05 09:23 | 5.44740 | 73.38283 | 27443 ft | 477 kts | 330° |
| 2026-05-05 09:23 | 5.47666 | 73.36661 | 27705 ft | 481 kts | 330° |
| 2026-05-05 09:23 | 5.50650 | 73.35085 | 28046 ft | 483 kts | 335° |
| 2026-05-05 09:23 | 5.53780 | 73.33931 | 28385 ft | 484 kts | 345° |
| 2026-05-05 09:24 | 5.57075 | 73.33105 | 28703 ft | 486 kts | 347° |
| 2026-05-05 09:24 | 5.60377 | 73.32390 | 28921 ft | 490 kts | 348° |
| 2026-05-05 09:24 | 5.63741 | 73.31713 | 29223 ft | 492 kts | 349° |
| 2026-05-05 09:24 | 5.67105 | 73.31052 | 29609 ft | 493 kts | 349° |
| 2026-05-05 09:25 | 5.70453 | 73.30389 | 29812 ft | 497 kts | 349° |
| 2026-05-05 09:25 | 5.73858 | 73.29704 | 30028 ft | 500 kts | 349° |
| 2026-05-05 09:25 | 5.77288 | 73.29003 | 30349 ft | 499 kts | 349° |
| 2026-05-05 09:25 | 5.80659 | 73.28308 | 30563 ft | 502 kts | 349° |
| 2026-05-05 09:26 | 5.84099 | 73.27594 | 30755 ft | 504 kts | 348° |
| 2026-05-05 09:26 | 5.87548 | 73.26876 | 31113 ft | 502 kts | 348° |
| 2026-05-05 09:26 | 5.90975 | 73.26162 | 31363 ft | 504 kts | 348° |
| 2026-05-05 09:26 | 5.94387 | 73.25452 | 31537 ft | 506 kts | 348° |
| 2026-05-05 09:27 | 5.97842 | 73.24733 | 31779 ft | 506 kts | 348° |
| 2026-05-05 09:27 | 6.01297 | 73.24014 | 32019 ft | 507 kts | 348° |
| 2026-05-05 09:27 | 6.04766 | 73.23293 | 32167 ft | 510 kts | 348° |
| 2026-05-05 09:27 | 6.08245 | 73.22569 | 32407 ft | 510 kts | 348° |
| 2026-05-05 09:28 | 6.11719 | 73.21847 | 32730 ft | 509 kts | 348° |
| 2026-05-05 09:28 | 6.15181 | 73.21126 | 33004 ft | 508 kts | 348° |
| 2026-05-05 09:28 | 6.18646 | 73.20406 | 33301 ft | 506 kts | 348° |
| 2026-05-05 09:28 | 6.22039 | 73.19700 | 33687 ft | 503 kts | 348° |
| 2026-05-05 09:29 | 6.25470 | 73.18986 | 34017 ft | 500 kts | 348° |
| 2026-05-05 09:29 | 6.28892 | 73.18273 | 34227 ft | 500 kts | 348° |
| 2026-05-05 09:29 | 6.32269 | 73.17571 | 34422 ft | 499 kts | 349° |
| 2026-05-05 09:29 | 6.35683 | 73.16860 | 34607 ft | 499 kts | 349° |
| 2026-05-05 09:30 | 6.39086 | 73.16152 | 34797 ft | 499 kts | 349° |
| 2026-05-05 09:30 | 6.42502 | 73.15441 | 35008 ft | 498 kts | 349° |
| 2026-05-05 09:30 | 6.45868 | 73.14740 | 35197 ft | 498 kts | 349° |
| 2026-05-05 09:30 | 6.49268 | 73.14031 | 35382 ft | 498 kts | 349° |
| 2026-05-05 09:31 | 6.52667 | 73.13324 | 35572 ft | 497 kts | 349° |
| 2026-05-05 09:31 | 6.56059 | 73.12617 | 35769 ft | 496 kts | 349° |
| 2026-05-05 09:31 | 6.59402 | 73.11920 | 35856 ft | 498 kts | 349° |
| 2026-05-05 09:32 | 6.66260 | 73.10491 | 35863 ft | 503 kts | 349° |
| 2026-05-05 09:32 | 6.73077 | 73.09070 | 35865 ft | 502 kts | 349° |
| 2026-05-05 09:33 | 6.79931 | 73.07641 | 35867 ft | 502 kts | 349° |
| 2026-05-05 09:33 | 6.86737 | 73.06221 | 35867 ft | 502 kts | 349° |
| 2026-05-05 09:34 | 6.93577 | 73.04794 | 35865 ft | 502 kts | 349° |
| 2026-05-05 09:34 | 7.00452 | 73.03359 | 35864 ft | 503 kts | 349° |
| 2026-05-05 09:35 | 7.07298 | 73.01930 | 35864 ft | 504 kts | 349° |
| 2026-05-05 09:35 | 7.17580 | 72.99782 | 35865 ft | 504 kts | 349° |
| 2026-05-05 09:36 | 7.24444 | 72.98348 | 35865 ft | 503 kts | 349° |
| 2026-05-05 09:36 | 7.31320 | 72.96911 | 35862 ft | 504 kts | 349° |
| 2026-05-05 09:37 | 7.38209 | 72.95471 | 35863 ft | 505 kts | 349° |
| 2026-05-05 09:37 | 7.45074 | 72.94035 | 35863 ft | 505 kts | 349° |
| 2026-05-05 09:38 | 7.51957 | 72.92597 | 35862 ft | 505 kts | 349° |
| 2026-05-05 09:38 | 7.58836 | 72.91133 | 35862 ft | 505 kts | 349° |
| 2026-05-05 09:39 | 7.65673 | 72.89662 | 35862 ft | 505 kts | 348° |
| 2026-05-05 09:39 | 7.72569 | 72.88182 | 35862 ft | 505 kts | 349° |
| 2026-05-05 09:40 | 7.79447 | 72.86710 | 35859 ft | 505 kts | 349° |
| 2026-05-05 09:40 | 7.86285 | 72.85248 | 35859 ft | 505 kts | 349° |
| 2026-05-05 09:41 | 7.93163 | 72.83777 | 35859 ft | 505 kts | 349° |
| 2026-05-05 09:41 | 8.00041 | 72.82305 | 35857 ft | 505 kts | 348° |
| 2026-05-05 09:42 | 8.06876 | 72.80841 | 35859 ft | 504 kts | 348° |
| 2026-05-05 09:42 | 8.13743 | 72.79370 | 35859 ft | 503 kts | 348° |
| 2026-05-05 09:43 | 8.20614 | 72.77898 | 35859 ft | 504 kts | 349° |
| 2026-05-05 09:43 | 8.27436 | 72.76436 | 35859 ft | 503 kts | 348° |
| 2026-05-05 09:44 | 8.34298 | 72.74965 | 35859 ft | 504 kts | 348° |
| 2026-05-05 09:44 | 8.41173 | 72.73490 | 35856 ft | 503 kts | 349° |
| 2026-05-05 09:45 | 8.48010 | 72.72022 | 35854 ft | 502 kts | 348° |
| 2026-05-05 09:45 | 8.54809 | 72.70563 | 35854 ft | 502 kts | 348° |
| 2026-05-05 09:46 | 8.61645 | 72.69095 | 35854 ft | 502 kts | 349° |
| 2026-05-05 09:46 | 8.68487 | 72.67625 | 35854 ft | 503 kts | 349° |
| 2026-05-05 09:47 | 8.75347 | 72.66151 | 35853 ft | 501 kts | 349° |
| 2026-05-05 09:47 | 8.82117 | 72.64696 | 35854 ft | 500 kts | 349° |
| 2026-05-05 09:48 | 8.88931 | 72.63230 | 35854 ft | 500 kts | 349° |
| 2026-05-05 09:48 | 8.95745 | 72.61764 | 35854 ft | 500 kts | 349° |
| 2026-05-05 09:49 | 9.02563 | 72.60297 | 35853 ft | 500 kts | 349° |
| 2026-05-05 09:49 | 9.09361 | 72.58834 | 35853 ft | 500 kts | 349° |
| 2026-05-05 09:50 | 9.16182 | 72.57365 | 35854 ft | 500 kts | 349° |
| 2026-05-05 09:50 | 9.22983 | 72.55899 | 35854 ft | 500 kts | 349° |
| 2026-05-05 09:51 | 9.29773 | 72.54435 | 35854 ft | 500 kts | 349° |
| 2026-05-05 09:51 | 9.36593 | 72.52964 | 35853 ft | 500 kts | 349° |
| 2026-05-05 09:52 | 9.43410 | 72.51494 | 35854 ft | 501 kts | 348° |
| 2026-05-05 09:52 | 9.50243 | 72.50020 | 35853 ft | 503 kts | 348° |
| 2026-05-05 09:53 | 9.57050 | 72.48551 | 35853 ft | 502 kts | 348° |
| 2026-05-05 09:53 | 9.63907 | 72.47069 | 35854 ft | 502 kts | 348° |
| 2026-05-05 09:54 | 9.70750 | 72.45591 | 35854 ft | 502 kts | 348° |
| 2026-05-05 09:54 | 9.77564 | 72.44118 | 35854 ft | 503 kts | 348° |
| 2026-05-05 09:55 | 9.84439 | 72.42631 | 35854 ft | 505 kts | 348° |
| 2026-05-05 09:55 | 9.91254 | 72.40902 | 35854 ft | 506 kts | 340° |
| 2026-05-05 09:56 | 9.97369 | 72.37456 | 35853 ft | 506 kts | 321° |
| 2026-05-05 09:56 | 10.02081 | 72.32148 | 35853 ft | 508 kts | 306° |
| 2026-05-05 09:57 | 10.06074 | 72.26208 | 35852 ft | 509 kts | 303° |
| 2026-05-05 09:57 | 10.09960 | 72.20220 | 35853 ft | 506 kts | 304° |
| 2026-05-05 09:58 | 10.13832 | 72.14300 | 35854 ft | 506 kts | 304° |
| 2026-05-05 09:58 | 10.17741 | 72.08375 | 35856 ft | 504 kts | 304° |
| 2026-05-05 09:59 | 10.21640 | 72.02479 | 35857 ft | 505 kts | 304° |
| 2026-05-05 09:59 | 10.25562 | 71.96548 | 35856 ft | 505 kts | 304° |
| 2026-05-05 10:00 | 10.29478 | 71.90620 | 35860 ft | 505 kts | 304° |
| 2026-05-05 10:00 | 10.33378 | 71.84712 | 35856 ft | 503 kts | 304° |
| 2026-05-05 10:01 | 10.37273 | 71.78807 | 35857 ft | 502 kts | 304° |
| 2026-05-05 10:01 | 10.41155 | 71.72920 | 35853 ft | 502 kts | 304° |
| 2026-05-05 10:02 | 10.45043 | 71.67020 | 35857 ft | 507 kts | 304° |
| 2026-05-05 10:02 | 10.48963 | 71.61070 | 35856 ft | 508 kts | 304° |
| 2026-05-05 10:03 | 10.52883 | 71.55114 | 35858 ft | 506 kts | 304° |
| 2026-05-05 10:03 | 10.56809 | 71.49147 | 35856 ft | 506 kts | 304° |
| 2026-05-05 10:04 | 10.60708 | 71.43218 | 35855 ft | 506 kts | 304° |
| 2026-05-05 10:04 | 10.64621 | 71.37265 | 35857 ft | 506 kts | 304° |
| 2026-05-05 10:05 | 10.68544 | 71.31291 | 35856 ft | 508 kts | 304° |
| 2026-05-05 10:05 | 10.72465 | 71.25320 | 35859 ft | 507 kts | 304° |
| 2026-05-05 10:06 | 10.76347 | 71.19404 | 35857 ft | 506 kts | 303° |
| 2026-05-05 10:06 | 10.80250 | 71.13452 | 35855 ft | 505 kts | 303° |
| 2026-05-05 10:07 | 10.84159 | 71.07488 | 35856 ft | 505 kts | 303° |
| 2026-05-05 10:07 | 10.88039 | 71.01566 | 35857 ft | 505 kts | 303° |
| 2026-05-05 10:08 | 10.91290 | 70.96601 | 35856 ft | 506 kts | 303° |
| 2026-05-05 10:08 | 10.95827 | 70.89667 | 35856 ft | 505 kts | 303° |
| 2026-05-05 10:09 | 10.99075 | 70.84700 | 35858 ft | 508 kts | 304° |
| 2026-05-05 10:09 | 11.03645 | 70.77709 | 35855 ft | 509 kts | 303° |
| 2026-05-05 10:10 | 11.06930 | 70.72681 | 35856 ft | 508 kts | 304° |
| 2026-05-05 10:10 | 11.10820 | 70.66723 | 35856 ft | 508 kts | 303° |
| 2026-05-05 10:11 | 11.14734 | 70.60726 | 35857 ft | 506 kts | 303° |
| 2026-05-05 10:11 | 11.18632 | 70.54749 | 35855 ft | 507 kts | 303° |
| 2026-05-05 10:12 | 11.22546 | 70.48743 | 35856 ft | 509 kts | 303° |
| 2026-05-05 10:12 | 11.26437 | 70.42771 | 35860 ft | 509 kts | 303° |
| 2026-05-05 10:13 | 11.30357 | 70.36751 | 35859 ft | 509 kts | 303° |
| 2026-05-05 10:13 | 11.34277 | 70.30726 | 35858 ft | 509 kts | 303° |
| 2026-05-05 10:14 | 11.38169 | 70.24741 | 35863 ft | 509 kts | 304° |
| 2026-05-05 10:14 | 11.42084 | 70.18717 | 35865 ft | 509 kts | 304° |
| 2026-05-05 10:15 | 11.45980 | 70.12721 | 35867 ft | 508 kts | 304° |
| 2026-05-05 10:15 | 11.49885 | 70.06705 | 35870 ft | 512 kts | 304° |
| 2026-05-05 10:16 | 11.51854 | 70.03670 | 36072 ft | 511 kts | 304° |
| 2026-05-05 10:16 | 11.53819 | 70.00641 | 36308 ft | 509 kts | 303° |
| 2026-05-05 10:16 | 11.55748 | 69.97666 | 36480 ft | 509 kts | 304° |
| 2026-05-05 10:16 | 11.57713 | 69.94636 | 36533 ft | 510 kts | 304° |
| 2026-05-05 10:17 | 11.59654 | 69.91640 | 36690 ft | 510 kts | 303° |
| 2026-05-05 10:17 | 11.61613 | 69.88618 | 36908 ft | 508 kts | 303° |
| 2026-05-05 10:17 | 11.63569 | 69.85595 | 37069 ft | 508 kts | 303° |
| 2026-05-05 10:17 | 11.65505 | 69.82588 | 37283 ft | 506 kts | 303° |
| 2026-05-05 10:18 | 11.67439 | 69.79572 | 37436 ft | 505 kts | 303° |
| 2026-05-05 10:18 | 11.69348 | 69.76595 | 37559 ft | 506 kts | 303° |
| 2026-05-05 10:18 | 11.71281 | 69.73578 | 37736 ft | 504 kts | 303° |
| 2026-05-05 10:18 | 11.73202 | 69.70582 | 37834 ft | 505 kts | 303° |
| 2026-05-05 10:19 | 11.77033 | 69.64609 | 37867 ft | 504 kts | 303° |
| 2026-05-05 10:19 | 11.80886 | 69.58600 | 37867 ft | 505 kts | 303° |
| 2026-05-05 10:20 | 11.84727 | 69.52608 | 37873 ft | 504 kts | 303° |
| 2026-05-05 10:20 | 11.88573 | 69.46604 | 37870 ft | 504 kts | 303° |
| 2026-05-05 10:21 | 11.92389 | 69.40642 | 37871 ft | 504 kts | 303° |
| 2026-05-05 10:21 | 11.96230 | 69.34639 | 37873 ft | 504 kts | 303° |
| 2026-05-05 10:22 | 12.00064 | 69.28642 | 37869 ft | 503 kts | 303° |
| 2026-05-05 10:22 | 12.03868 | 69.22688 | 37874 ft | 502 kts | 303° |
| 2026-05-05 10:23 | 12.07700 | 69.16686 | 37874 ft | 503 kts | 303° |
| 2026-05-05 10:23 | 12.11496 | 69.10737 | 37873 ft | 502 kts | 303° |
| 2026-05-05 10:24 | 12.15322 | 69.04739 | 37873 ft | 502 kts | 303° |
| 2026-05-05 10:24 | 12.19127 | 68.98773 | 37873 ft | 502 kts | 303° |
| 2026-05-05 10:25 | 12.22951 | 68.92801 | 37873 ft | 502 kts | 303° |
| 2026-05-05 10:25 | 12.26121 | 68.87845 | 37872 ft | 502 kts | 303° |
| 2026-05-05 10:26 | 12.30566 | 68.80891 | 37876 ft | 501 kts | 303° |
| 2026-05-05 10:26 | 12.34391 | 68.74904 | 37875 ft | 500 kts | 303° |
| 2026-05-05 10:27 | 12.38187 | 68.68959 | 37875 ft | 501 kts | 303° |
| 2026-05-05 10:27 | 12.42007 | 68.62971 | 37876 ft | 501 kts | 303° |
| 2026-05-05 10:28 | 12.45801 | 68.57022 | 37874 ft | 501 kts | 303° |
| 2026-05-05 10:28 | 12.49608 | 68.51047 | 37876 ft | 501 kts | 303° |
| 2026-05-05 10:29 | 12.53418 | 68.45064 | 37876 ft | 500 kts | 303° |
| 2026-05-05 10:29 | 12.57209 | 68.39108 | 37876 ft | 500 kts | 303° |
| 2026-05-05 10:30 | 12.60987 | 68.33167 | 37879 ft | 499 kts | 303° |
| 2026-05-05 10:30 | 12.64788 | 68.27187 | 37879 ft | 499 kts | 303° |
| 2026-05-05 10:31 | 12.68560 | 68.21249 | 37879 ft | 499 kts | 303° |
| 2026-05-05 10:31 | 12.72334 | 68.15305 | 37878 ft | 500 kts | 303° |
| 2026-05-05 10:32 | 12.76119 | 68.09339 | 37876 ft | 500 kts | 303° |
| 2026-05-05 10:32 | 12.79917 | 68.03346 | 37878 ft | 500 kts | 303° |
| 2026-05-05 10:33 | 12.83697 | 67.97407 | 37879 ft | 499 kts | 304° |
| 2026-05-05 10:33 | 12.87519 | 67.91440 | 37880 ft | 500 kts | 304° |
| 2026-05-05 10:34 | 12.91341 | 67.85469 | 37876 ft | 500 kts | 303° |
| 2026-05-05 10:34 | 12.95134 | 67.79535 | 37873 ft | 500 kts | 304° |
| 2026-05-05 10:35 | 12.98947 | 67.73563 | 37875 ft | 500 kts | 304° |
| 2026-05-05 10:35 | 13.02761 | 67.67585 | 37876 ft | 500 kts | 303° |
| 2026-05-05 10:36 | 13.06548 | 67.61645 | 37876 ft | 500 kts | 303° |
| 2026-05-05 10:36 | 13.10369 | 67.55649 | 37876 ft | 499 kts | 303° |
| 2026-05-05 10:37 | 13.14153 | 67.49705 | 37874 ft | 499 kts | 303° |
| 2026-05-05 10:37 | 13.17940 | 67.43755 | 37875 ft | 500 kts | 303° |
| 2026-05-05 10:38 | 13.21724 | 67.37804 | 37878 ft | 499 kts | 303° |
| 2026-05-05 10:38 | 13.25532 | 67.31811 | 37878 ft | 499 kts | 303° |
| 2026-05-05 10:39 | 13.29310 | 67.25862 | 37878 ft | 499 kts | 303° |
| 2026-05-05 10:39 | 13.33112 | 67.19872 | 37879 ft | 499 kts | 303° |
| 2026-05-05 10:40 | 13.36892 | 67.13910 | 37874 ft | 499 kts | 303° |
| 2026-05-05 10:40 | 13.40666 | 67.07957 | 37876 ft | 499 kts | 303° |
| 2026-05-05 10:41 | 13.44463 | 67.01961 | 37876 ft | 499 kts | 303° |
| 2026-05-05 10:41 | 13.48231 | 66.96006 | 37872 ft | 499 kts | 303° |
| 2026-05-05 10:42 | 13.53904 | 66.87035 | 37874 ft | 498 kts | 303° |
| 2026-05-05 10:43 | 13.57668 | 66.81078 | 37877 ft | 498 kts | 303° |